Time;durP1;ratioP1;P1;durP2;ratioP2;P2;SDS_P1;SDS_P2;PMS_P1;PMS_P2;Temp;Humidity;BMP_temperature;BMP_pressure;BME280_temperature;BME280_humidity;BME280_pressure;Samples;Min_cycle;Max_cycle;Signal;HPM_P1;HPM_P2
2024/03/23 00:03:08;;;;;;;6.68;5.60;;;;;;;;;;10108100;28;20402;-77
2024/03/23 00:08:00;;;;;;;8.15;5.47;;;;;;;;;;10105473;28;20041;-76
2024/03/23 00:12:52;;;;;;;6.70;4.75;;;;;;;;;;10091496;28;20459;-76
2024/03/23 00:17:45;;;;;;;8.07;4.50;;;;;;;;;;10109266;28;20060;-76
2024/03/23 00:22:37;;;;;;;6.13;4.88;;;;;;;;;;10075353;28;20061;-75
2024/03/23 00:27:31;;;;;;;5.38;4.35;;;;;;;;;;10065786;28;20051;-75
2024/03/23 00:32:23;;;;;;;6.00;4.97;;;;;;;;;;10096132;28;20128;-74
2024/03/23 00:37:16;;;;;;;6.78;4.82;;;;;;;;;;10094018;28;20052;-75
2024/03/23 00:42:08;;;;;;;6.25;4.75;;;;;;;;;;10096545;28;20163;-75
2024/03/23 00:47:00;;;;;;;5.63;4.85;;;;;;;;;;10103046;28;20519;-74
2024/03/23 00:51:53;;;;;;;7.32;5.43;;;;;;;;;;10079727;28;20504;-75
2024/03/23 00:56:45;;;;;;;5.82;5.22;;;;;;;;;;10131043;28;20045;-75
2024/03/23 01:01:37;;;;;;;5.53;5.00;;;;;;;;;;10127929;28;20471;-75
2024/03/23 01:06:29;;;;;;;5.60;4.60;;;;;;;;;;10124808;28;20496;-74
2024/03/23 01:11:22;;;;;;;4.53;3.90;;;;;;;;;;10120428;28;20063;-75
2024/03/23 01:16:14;;;;;;;8.48;5.07;;;;;;;;;;10119673;28;20135;-74
2024/03/23 01:21:07;;;;;;;8.50;4.47;;;;;;;;;;10124573;28;20060;-74
2024/03/23 01:25:59;;;;;;;5.18;4.68;;;;;;;;;;10118656;28;20526;-74
2024/03/23 01:30:52;;;;;;;8.93;5.57;;;;;;;;;;10123697;28;20072;-75
2024/03/23 01:35:44;;;;;;;7.22;4.95;;;;;;;;;;10122250;28;20051;-75
2024/03/23 01:40:37;;;;;;;8.15;5.15;;;;;;;;;;10124765;28;20056;-74
2024/03/23 01:45:30;;;;;;;5.93;4.85;;;;;;;;;;10131506;28;20489;-75
2024/03/23 01:50:26;;;;;;;8.73;5.20;;;;;;;;;;10130442;28;20049;-75
2024/03/23 01:55:35;;;;;;;6.35;5.18;;;;;;;;;;10119545;28;20095;-76
2024/03/23 02:00:33;;;;;;;6.25;4.93;;;;;;;;;;10102463;28;20496;-75
2024/03/23 02:05:28;;;;;;;6.63;4.60;;;;;;;;;;10101820;28;20128;-74
2024/03/23 02:10:20;;;;;;;6.10;5.30;;;;;;;;;;10123481;28;20048;-76
2024/03/23 02:15:12;;;;;;;7.88;5.88;;;;;;;;;;10118839;28;20052;-75
2024/03/23 02:20:06;;;;;;;6.50;5.78;;;;;;;;;;10121346;28;20071;-75
2024/03/23 02:24:58;;;;;;;7.22;5.50;;;;;;;;;;10127265;28;20082;-75
2024/03/23 02:29:51;;;;;;;8.57;5.35;;;;;;;;;;10117636;28;20052;-76
2024/03/23 02:34:42;;;;;;;7.13;5.45;;;;;;;;;;10126597;28;20416;-75
2024/03/23 02:39:35;;;;;;;8.23;6.30;;;;;;;;;;10124402;28;20511;-76
2024/03/23 02:44:27;;;;;;;7.78;5.43;;;;;;;;;;10117622;28;20048;-76
2024/03/23 02:49:21;;;;;;;8.13;5.93;;;;;;;;;;10118333;28;20045;-76
2024/03/23 02:54:15;;;;;;;6.25;5.28;;;;;;;;;;10116956;28;20061;-76
2024/03/23 02:59:07;;;;;;;8.32;5.65;;;;;;;;;;10115302;28;20056;-75
2024/03/23 03:04:00;;;;;;;6.53;5.45;;;;;;;;;;10116797;28;20059;-75
2024/03/23 03:08:53;;;;;;;7.60;5.50;;;;;;;;;;10123197;28;20066;-75
2024/03/23 03:13:45;;;;;;;6.75;5.20;;;;;;;;;;10113700;28;20048;-74
2024/03/23 03:18:37;;;;;;;5.70;5.20;;;;;;;;;;10129233;28;20052;-75
2024/03/23 03:23:30;;;;;;;10.45;4.90;;;;;;;;;;10133674;28;20052;-75
2024/03/23 03:28:22;;;;;;;6.35;5.32;;;;;;;;;;10120993;28;20095;-76
2024/03/23 03:33:15;;;;;;;5.95;5.35;;;;;;;;;;10120362;28;20048;-76
2024/03/23 03:38:07;;;;;;;4.88;4.30;;;;;;;;;;10124158;28;20056;-76
2024/03/23 03:43:00;;;;;;;11.00;6.25;;;;;;;;;;10117321;28;20057;-75
2024/03/23 03:47:52;;;;;;;6.32;5.05;;;;;;;;;;10118152;28;20049;-75
2024/03/23 03:52:45;;;;;;;5.93;4.68;;;;;;;;;;10120984;28;20052;-75
2024/03/23 03:57:37;;;;;;;6.95;4.85;;;;;;;;;;10125097;28;20067;-74
2024/03/23 04:02:29;;;;;;;6.65;4.85;;;;;;;;;;10131269;28;20053;-75
2024/03/23 04:07:22;;;;;;;10.27;5.88;;;;;;;;;;10123860;28;20471;-75
2024/03/23 04:12:14;;;;;;;6.20;5.32;;;;;;;;;;10125348;28;20526;-76
2024/03/23 04:17:06;;;;;;;8.30;5.80;;;;;;;;;;10121620;28;20385;-75
2024/03/23 04:21:58;;;;;;;7.70;5.07;;;;;;;;;;10117597;28;20076;-75
2024/03/23 04:26:50;;;;;;;5.43;4.30;;;;;;;;;;10115691;28;20474;-74
2024/03/23 04:31:43;;;;;;;5.18;4.32;;;;;;;;;;10120108;28;20756;-74
2024/03/23 04:36:36;;;;;;;7.28;3.55;;;;;;;;;;10128930;28;20570;-75
2024/03/23 04:41:28;;;;;;;7.07;3.80;;;;;;;;;;10128338;28;20059;-76
2024/03/23 04:46:21;;;;;;;4.50;3.45;;;;;;;;;;10120005;28;20056;-76
2024/03/23 04:51:23;;;;;;;4.80;3.60;;;;;;;;;;10121003;28;20056;-75
2024/03/23 04:56:17;;;;;;;5.07;3.08;;;;;;;;;;10111649;28;20048;-75
2024/03/23 05:01:09;;;;;;;8.73;3.72;;;;;;;;;;10123386;28;20101;-75
2024/03/23 05:06:03;;;;;;;5.78;4.20;;;;;;;;;;10125869;28;20086;-75
2024/03/23 05:10:55;;;;;;;4.80;3.25;;;;;;;;;;10113835;28;20479;-75
2024/03/23 05:16:11;;;;;;;4.35;3.92;;;;;;;;;;10123604;28;20056;-75
2024/03/23 05:21:04;;;;;;;6.25;3.83;;;;;;;;;;10111858;28;20045;-76
2024/03/23 05:25:57;;;;;;;4.30;3.55;;;;;;;;;;10126165;28;20053;-75
2024/03/23 05:30:56;;;;;;;4.88;4.38;;;;;;;;;;10118871;28;20089;-76
2024/03/23 05:35:57;;;;;;;4.60;3.20;;;;;;;;;;10119867;28;20053;-75
2024/03/23 05:40:56;;;;;;;5.65;4.15;;;;;;;;;;10125384;28;20048;-74
2024/03/23 05:45:54;;;;;;;8.63;6.40;;;;;;;;;;10124890;28;20456;-75
2024/03/23 05:50:47;;;;;;;18.35;10.38;;;;;;;;;;10121375;28;20048;-76
2024/03/23 05:55:40;;;;;;;4.05;3.65;;;;;;;;;;10121116;28;20060;-75
2024/03/23 06:00:32;;;;;;;10.50;9.40;;;;;;;;;;10117983;28;20619;-75
2024/03/23 06:05:25;;;;;;;4.10;3.55;;;;;;;;;;10121782;28;20044;-75
2024/03/23 06:10:17;;;;;;;16.63;10.98;;;;;;;;;;10128885;28;20052;-74
2024/03/23 06:15:10;;;;;;;6.43;4.40;;;;;;;;;;10114993;28;20478;-75
2024/03/23 06:20:03;;;;;;;18.05;11.80;;;;;;;;;;10122952;28;20408;-76
2024/03/23 06:24:57;;;;;;;7.93;6.22;;;;;;;;;;10134178;28;20058;-76
2024/03/23 06:29:49;;;;;;;6.40;5.00;;;;;;;;;;10119695;28;20411;-76
2024/03/23 06:34:42;;;;;;;5.68;4.65;;;;;;;;;;10127059;28;20053;-75
2024/03/23 06:39:34;;;;;;;8.95;5.55;;;;;;;;;;10126795;28;20060;-76
2024/03/23 06:44:27;;;;;;;10.32;5.05;;;;;;;;;;10134751;28;20122;-75
2024/03/23 06:49:20;;;;;;;7.32;5.55;;;;;;;;;;10129621;28;20083;-75
2024/03/23 06:54:12;;;;;;;9.23;6.32;;;;;;;;;;10123628;28;20060;-78
2024/03/23 06:59:04;;;;;;;9.90;6.80;;;;;;;;;;10119041;28;20048;-79
2024/03/23 07:03:57;;;;;;;5.95;5.07;;;;;;;;;;10121829;28;20065;-78
2024/03/23 07:08:49;;;;;;;5.40;4.90;;;;;;;;;;10120832;28;20056;-79
2024/03/23 07:13:41;;;;;;;5.45;4.60;;;;;;;;;;10125018;28;20149;-77
2024/03/23 07:18:34;;;;;;;4.93;4.40;;;;;;;;;;10126862;28;20082;-81
2024/03/23 07:23:26;;;;;;;7.50;5.00;;;;;;;;;;10132908;28;20063;-80
2024/03/23 07:28:19;;;;;;;6.78;4.57;;;;;;;;;;10126162;28;20053;-79
2024/03/23 07:33:12;;;;;;;5.57;5.05;;;;;;;;;;10119036;28;20063;-79
2024/03/23 07:38:05;;;;;;;9.75;6.25;;;;;;;;;;10122495;28;20040;-79
2024/03/23 07:42:57;;;;;;;13.32;7.10;;;;;;;;;;10123484;28;20052;-78
2024/03/23 07:47:50;;;;;;;14.88;6.40;;;;;;;;;;10122491;28;20051;-78
2024/03/23 07:52:42;;;;;;;10.52;6.63;;;;;;;;;;10128213;28;20097;-76
2024/03/23 07:57:35;;;;;;;8.10;6.78;;;;;;;;;;10128949;28;20048;-77
2024/03/23 08:02:27;;;;;;;13.50;7.55;;;;;;;;;;10119213;28;20061;-78
2024/03/23 08:07:20;;;;;;;10.95;7.53;;;;;;;;;;10123511;28;20057;-78
2024/03/23 08:12:13;;;;;;;14.70;7.90;;;;;;;;;;10116727;28;20057;-77
2024/03/23 08:17:06;;;;;;;15.00;7.93;;;;;;;;;;10130904;28;20056;-77
2024/03/23 08:21:58;;;;;;;10.85;7.53;;;;;;;;;;10130757;28;20060;-76
2024/03/23 08:26:51;;;;;;;10.95;8.10;;;;;;;;;;10127827;28;20052;-77
2024/03/23 08:31:43;;;;;;;8.90;7.43;;;;;;;;;;10120856;28;20049;-78
2024/03/23 08:36:35;;;;;;;9.65;7.28;;;;;;;;;;10108111;28;20048;-77
2024/03/23 08:41:27;;;;;;;12.77;5.80;;;;;;;;;;10120130;28;20052;-77
2024/03/23 08:46:20;;;;;;;12.70;7.55;;;;;;;;;;10117057;28;20053;-78
2024/03/23 08:51:14;;;;;;;17.85;7.68;;;;;;;;;;10133029;28;20139;-76
2024/03/23 08:56:07;;;;;;;14.68;9.15;;;;;;;;;;10116392;28;20059;-77
2024/03/23 09:01:10;;;;;;;17.67;9.88;;;;;;;;;;10129989;28;20114;-76
2024/03/23 09:06:13;;;;;;;13.88;9.55;;;;;;;;;;10128841;28;20056;-74
2024/03/23 14:28:53;;;;;;;13.98;2.20;;;;;;;;;;10232929;27;21961;-73
2024/03/23 14:33:46;;;;;;;6.13;2.17;;;;;;;;;;10184332;28;20036;-74
2024/03/23 14:38:39;;;;;;;8.35;2.70;;;;;;;;;;10163150;28;20040;-73
2024/03/23 14:43:32;;;;;;;8.50;2.55;;;;;;;;;;10177162;28;20047;-75
2024/03/23 14:48:25;;;;;;;9.13;3.00;;;;;;;;;;10181313;28;20051;-74
2024/03/23 14:53:17;;;;;;;8.30;2.58;;;;;;;;;;10177891;28;20119;-74
2024/03/23 14:58:10;;;;;;;5.43;2.25;;;;;;;;;;10179708;28;20076;-74
2024/03/23 15:03:03;;;;;;;7.38;2.80;;;;;;;;;;10180975;28;20052;-73
2024/03/23 15:07:55;;;;;;;7.70;3.40;;;;;;;;;;10192686;28;20052;-74
2024/03/23 15:12:47;;;;;;;6.05;3.28;;;;;;;;;;10179248;28;20094;-75
2024/03/23 15:17:44;;;;;;;6.45;1.98;;;;;;;;;;10182865;28;20044;-75
2024/03/23 15:22:36;;;;;;;9.80;3.00;;;;;;;;;;10182053;28;20079;-74
2024/03/23 15:27:29;;;;;;;9.27;3.92;;;;;;;;;;10183737;28;20058;-75
2024/03/23 15:32:21;;;;;;;8.43;3.13;;;;;;;;;;10180144;28;20123;-75
2024/03/23 15:37:12;;;;;;;7.50;2.85;;;;;;;;;;10174593;28;20036;-75
2024/03/23 15:42:06;;;;;;;4.43;2.25;;;;;;;;;;10155089;28;20454;-74
2024/03/23 15:46:59;;;;;;;4.63;2.30;;;;;;;;;;10156557;28;20131;-74
2024/03/23 15:51:53;;;;;;;8.18;3.50;;;;;;;;;;10159379;28;20044;-75
2024/03/23 15:56:46;;;;;;;7.47;2.55;;;;;;;;;;10160292;28;20037;-74
2024/03/23 16:01:38;;;;;;;9.27;2.40;;;;;;;;;;10152928;28;20447;-74
2024/03/23 16:06:31;;;;;;;9.35;2.95;;;;;;;;;;10152790;28;20052;-75
2024/03/23 16:14:54;;;;;;;5.90;2.75;;;;;;;;;;10203415;27;21991;-74
2024/03/23 16:19:47;;;;;;;6.43;2.15;;;;;;;;;;10146093;28;20146;-75
2024/03/23 16:24:40;;;;;;;10.75;2.85;;;;;;;;;;10141576;28;20064;-75
2024/03/23 16:29:32;;;;;;;7.25;3.38;;;;;;;;;;10150041;28;20056;-75
2024/03/23 16:34:25;;;;;;;5.05;2.17;;;;;;;;;;10157946;28;20048;-73
2024/03/23 16:39:18;;;;;;;4.38;2.10;;;;;;;;;;10163270;28;20472;-76
2024/03/23 16:44:10;;;;;;;5.75;3.40;;;;;;;;;;10156983;28;20078;-74
2024/03/23 16:49:02;;;;;;;10.30;2.78;;;;;;;;;;10154481;28;20044;-75
2024/03/23 16:53:59;;;;;;;12.23;2.38;;;;;;;;;;10160525;28;20052;-74
2024/03/23 16:58:51;;;;;;;8.90;3.72;;;;;;;;;;10157500;28;20515;-75
2024/03/23 17:04:07;;;;;;;8.35;4.03;;;;;;;;;;10167107;28;20043;-74
2024/03/23 17:09:00;;;;;;;6.13;2.88;;;;;;;;;;10154505;28;20051;-73
2024/03/23 17:13:55;;;;;;;20.80;11.52;;;;;;;;;;10149922;28;20060;-74
2024/03/23 17:18:49;;;;;;;11.35;3.88;;;;;;;;;;10156624;28;20102;-75
2024/03/23 17:23:41;;;;;;;8.10;2.42;;;;;;;;;;10144412;28;20045;-73
2024/03/23 17:28:33;;;;;;;12.20;6.30;;;;;;;;;;10118906;28;20072;-74
2024/03/23 17:33:26;;;;;;;15.98;4.35;;;;;;;;;;10130592;28;20075;-75
2024/03/23 17:38:19;;;;;;;16.25;11.07;;;;;;;;;;10125889;28;20102;-74
2024/03/23 17:43:11;;;;;;;26.33;16.00;;;;;;;;;;10115501;28;20403;-73
2024/03/23 17:48:05;;;;;;;10.40;7.28;;;;;;;;;;10137593;28;20102;-74
2024/03/23 17:52:57;;;;;;;7.30;5.20;;;;;;;;;;10129805;28;20076;-74
2024/03/23 17:57:49;;;;;;;9.35;4.85;;;;;;;;;;10129143;28;20057;-73
2024/03/23 18:02:42;;;;;;;7.97;3.45;;;;;;;;;;10136412;28;20040;-74
2024/03/23 18:07:35;;;;;;;8.98;4.78;;;;;;;;;;10125057;28;20056;-73
2024/03/23 18:12:27;;;;;;;9.98;6.60;;;;;;;;;;10118137;28;20049;-75
2024/03/23 18:17:19;;;;;;;5.28;3.95;;;;;;;;;;10130754;28;20507;-74
2024/03/23 18:22:11;;;;;;;9.75;4.10;;;;;;;;;;10124668;28;20048;-75
2024/03/23 18:27:09;;;;;;;8.73;6.13;;;;;;;;;;10125382;28;20055;-74
2024/03/23 18:32:01;;;;;;;7.22;5.55;;;;;;;;;;10127429;28;20072;-74
2024/03/23 18:36:53;;;;;;;7.30;3.90;;;;;;;;;;10126401;28;20053;-74
2024/03/23 18:41:46;;;;;;;7.00;3.70;;;;;;;;;;10125536;28;20044;-72
2024/03/23 18:46:38;;;;;;;6.80;3.47;;;;;;;;;;10111203;28;20639;-72
2024/03/23 18:51:30;;;;;;;7.80;3.08;;;;;;;;;;10149755;28;20041;-73
2024/03/23 18:56:22;;;;;;;5.15;3.25;;;;;;;;;;10121911;28;20044;-74
2024/03/23 19:01:15;;;;;;;4.90;3.63;;;;;;;;;;10124649;28;20568;-75
2024/03/23 19:06:07;;;;;;;12.50;4.03;;;;;;;;;;10114762;28;20048;-73
2024/03/23 19:11:02;;;;;;;5.70;3.55;;;;;;;;;;10122259;28;20071;-73
2024/03/23 19:15:55;;;;;;;8.60;4.28;;;;;;;;;;10113580;28;20135;-74
2024/03/23 19:20:57;;;;;;;10.23;3.53;;;;;;;;;;10124157;28;20040;-73
2024/03/23 19:25:54;;;;;;;6.13;3.58;;;;;;;;;;10134042;28;20049;-74
2024/03/23 19:30:47;;;;;;;4.40;3.13;;;;;;;;;;10126257;28;20096;-75
2024/03/23 19:35:39;;;;;;;6.13;3.85;;;;;;;;;;10126002;28;20517;-72
2024/03/23 19:40:32;;;;;;;10.52;3.28;;;;;;;;;;10125884;28;20515;-72
2024/03/23 19:45:24;;;;;;;7.63;3.60;;;;;;;;;;10124615;28;20048;-73
2024/03/23 19:50:16;;;;;;;6.15;3.88;;;;;;;;;;10123428;28;20067;-73
2024/03/23 19:55:09;;;;;;;9.10;4.43;;;;;;;;;;10124328;28;20146;-74
2024/03/23 20:00:02;;;;;;;7.90;3.72;;;;;;;;;;10127378;28;20079;-73
2024/03/23 20:05:04;;;;;;;9.65;4.55;;;;;;;;;;10128883;28;20052;-74
2024/03/23 20:09:57;;;;;;;5.10;3.33;;;;;;;;;;10127307;28;20090;-75
2024/03/23 20:14:49;;;;;;;6.45;3.50;;;;;;;;;;10126623;28;20053;-73
2024/03/23 20:19:41;;;;;;;5.22;3.50;;;;;;;;;;10122332;28;20044;-75
2024/03/23 20:24:34;;;;;;;8.95;3.50;;;;;;;;;;10127104;28;20055;-74
2024/03/23 20:29:26;;;;;;;6.03;4.15;;;;;;;;;;10127002;28;20416;-74
2024/03/23 20:34:20;;;;;;;8.02;4.00;;;;;;;;;;10105791;28;20045;-73
2024/03/23 20:39:12;;;;;;;8.25;3.70;;;;;;;;;;10125276;28;20041;-74
2024/03/23 20:44:05;;;;;;;9.40;3.55;;;;;;;;;;10122707;28;20045;-74
2024/03/23 20:48:58;;;;;;;9.27;3.95;;;;;;;;;;10120635;28;20459;-76
2024/03/23 20:53:51;;;;;;;14.10;3.78;;;;;;;;;;10124541;28;20063;-74
2024/03/23 20:58:44;;;;;;;8.02;3.97;;;;;;;;;;10127831;28;20056;-74
2024/03/23 21:03:36;;;;;;;6.35;3.80;;;;;;;;;;10132157;28;20059;-73
2024/03/23 21:08:28;;;;;;;8.63;3.30;;;;;;;;;;10132022;28;20488;-73
2024/03/23 21:13:22;;;;;;;9.13;3.40;;;;;;;;;;10112947;28;20045;-74
2024/03/23 21:18:14;;;;;;;6.00;3.60;;;;;;;;;;10129166;28;20147;-74
2024/03/23 21:23:06;;;;;;;7.10;3.78;;;;;;;;;;10131940;28;20052;-73
2024/03/23 21:27:59;;;;;;;11.38;5.00;;;;;;;;;;10131101;28;20422;-72
2024/03/23 21:32:52;;;;;;;9.60;5.32;;;;;;;;;;10131226;28;20047;-72
2024/03/23 21:37:44;;;;;;;9.60;4.85;;;;;;;;;;10131350;28;20053;-73
2024/03/23 21:42:37;;;;;;;9.25;4.38;;;;;;;;;;10131564;28;20055;-74
2024/03/23 21:47:29;;;;;;;10.77;4.20;;;;;;;;;;10129014;28;20048;-72
2024/03/23 21:52:22;;;;;;;7.30;4.07;;;;;;;;;;10126290;28;20045;-72
2024/03/23 21:57:14;;;;;;;5.10;4.28;;;;;;;;;;10130645;28;20622;-74
2024/03/23 22:02:08;;;;;;;15.73;4.63;;;;;;;;;;10126342;28;20079;-74
2024/03/23 22:07:00;;;;;;;11.13;3.55;;;;;;;;;;10125846;28;20040;-75
2024/03/23 22:11:53;;;;;;;7.60;4.00;;;;;;;;;;10129220;28;20074;-74
2024/03/23 22:16:45;;;;;;;9.98;4.15;;;;;;;;;;10129168;28;20117;-74
2024/03/23 22:21:37;;;;;;;8.77;3.28;;;;;;;;;;10127133;28;20041;-74
2024/03/23 22:26:30;;;;;;;8.40;4.38;;;;;;;;;;10128440;28;20045;-74
2024/03/23 22:31:22;;;;;;;9.50;5.03;;;;;;;;;;10129221;28;20514;-73
2024/03/23 22:36:15;;;;;;;5.00;3.05;;;;;;;;;;10128604;28;20670;-74
2024/03/23 22:41:08;;;;;;;10.90;4.18;;;;;;;;;;10128421;28;20045;-74
2024/03/23 22:46:05;;;;;;;10.88;4.05;;;;;;;;;;10123216;28;20055;-74
2024/03/23 22:50:58;;;;;;;6.90;4.20;;;;;;;;;;10128547;28;20049;-74
2024/03/23 22:56:11;;;;;;;5.95;3.55;;;;;;;;;;10126028;28;20048;-73
2024/03/23 23:01:07;;;;;;;12.98;3.28;;;;;;;;;;10122257;28;20079;-74
2024/03/23 23:06:04;;;;;;;10.00;3.55;;;;;;;;;;10127824;28;20097;-74
2024/03/23 23:10:57;;;;;;;7.13;4.05;;;;;;;;;;10112129;28;20103;-74
2024/03/23 23:15:53;;;;;;;5.88;3.10;;;;;;;;;;10107895;28;20499;-75
2024/03/23 23:20:46;;;;;;;8.00;3.88;;;;;;;;;;10125593;28;20048;-74
2024/03/23 23:25:38;;;;;;;12.10;4.22;;;;;;;;;;10111536;28;20040;-74
2024/03/23 23:30:31;;;;;;;16.60;3.63;;;;;;;;;;10126971;28;20048;-73
2024/03/23 23:35:24;;;;;;;5.68;3.22;;;;;;;;;;10126027;28;20071;-74
2024/03/23 23:40:17;;;;;;;10.90;3.63;;;;;;;;;;10136426;28;20059;-73
2024/03/23 23:45:12;;;;;;;10.25;5.05;;;;;;;;;;10126058;28;20055;-73
2024/03/23 23:50:07;;;;;;;7.90;4.20;;;;;;;;;;10125953;28;20127;-74
2024/03/23 23:55:00;;;;;;;8.48;3.47;;;;;;;;;;10137443;28;20131;-74
2024/03/23 23:59:53;;;;;;;8.00;3.85;;;;;;;;;;10132158;28;20063;-74
